createdAt,value
2023-05-14T00:02:14.063Z,11.60
2023-05-14T00:04:41.099Z,11.70
2023-05-14T00:07:08.194Z,11.90
2023-05-14T00:09:35.463Z,11.90
2023-05-14T00:12:02.508Z,12.00
2023-05-14T00:14:29.545Z,11.90
2023-05-14T00:16:56.491Z,11.90
2023-05-14T00:19:23.743Z,11.80
2023-05-14T00:21:50.783Z,11.80
2023-05-14T00:24:17.695Z,11.90
2023-05-14T00:26:44.697Z,11.90
2023-05-14T00:29:11.731Z,11.90
2023-05-14T00:31:38.833Z,11.90
2023-05-14T00:34:05.951Z,11.80
2023-05-14T00:36:32.920Z,11.60
2023-05-14T00:39:00.114Z,11.60
2023-05-14T00:41:27.106Z,11.60
2023-05-14T00:43:56.011Z,11.40
2023-05-14T00:46:23.143Z,11.40
2023-05-14T00:48:51.056Z,11.30
2023-05-14T00:51:19.169Z,11.30
2023-05-14T00:53:47.414Z,11.30
2023-05-14T00:56:15.783Z,11.40
2023-05-14T00:58:42.886Z,11.40
2023-05-14T01:01:10.333Z,11.50
2023-05-14T01:03:37.497Z,11.40
2023-05-14T01:06:07.398Z,11.30
2023-05-14T01:09:08.541Z,11.20
2023-05-14T01:11:56.637Z,11.20
2023-05-14T01:14:44.799Z,11.20
2023-05-14T01:17:15.454Z,11.20
2023-05-14T01:19:44.446Z,11.10
2023-05-14T01:22:12.559Z,11.10
2023-05-14T01:24:40.165Z,11.00
2023-05-14T01:27:21.874Z,11.00
2023-05-14T01:30:12.207Z,11.00
2023-05-14T01:32:40.658Z,11.00
2023-05-14T01:35:09.530Z,10.90
2023-05-14T01:37:38.094Z,10.90
2023-05-14T01:40:06.568Z,10.80
2023-05-14T01:42:33.590Z,10.80
2023-05-14T01:45:01.338Z,10.80
2023-05-14T01:47:28.292Z,10.80
2023-05-14T01:49:55.456Z,10.90
2023-05-14T01:52:22.445Z,10.90
2023-05-14T01:54:49.626Z,11.00
2023-05-14T01:57:16.600Z,11.00
2023-05-14T01:59:43.551Z,11.00
2023-05-14T02:02:10.738Z,11.00
2023-05-14T02:04:37.619Z,11.00
2023-05-14T02:07:04.664Z,11.00
2023-05-14T02:09:31.543Z,11.00
2023-05-14T02:11:58.479Z,11.00
2023-05-14T02:14:25.625Z,11.00
2023-05-14T02:16:52.649Z,10.90
2023-05-14T02:19:19.532Z,10.90
2023-05-14T02:21:53.354Z,10.90
2023-05-14T02:24:20.551Z,10.90
2023-05-14T02:26:47.762Z,10.80
2023-05-14T02:29:14.614Z,10.80
2023-05-14T02:31:41.551Z,10.80
2023-05-14T02:34:08.636Z,10.70
2023-05-14T02:36:35.657Z,10.70
2023-05-14T02:39:02.731Z,10.60
2023-05-14T02:41:29.678Z,10.60
2023-05-14T02:43:56.591Z,10.50
2023-05-14T02:46:23.579Z,10.50
2023-05-14T02:48:50.612Z,10.60
2023-05-14T02:51:19.615Z,10.50
2023-05-14T02:53:46.632Z,10.50
2023-05-14T02:56:13.541Z,10.40
2023-05-14T02:58:40.485Z,10.30
2023-05-14T03:01:07.816Z,10.20
2023-05-14T03:03:35.994Z,10.20
2023-05-14T03:06:03.406Z,9.90
2023-05-14T03:08:30.360Z,10.00
2023-05-14T03:10:57.359Z,10.00
2023-05-14T03:13:24.317Z,10.00
2023-05-14T03:15:54.964Z,9.90
2023-05-14T03:18:22.610Z,9.90
2023-05-14T03:20:49.630Z,9.90
2023-05-14T03:23:16.721Z,9.90
2023-05-14T03:25:43.648Z,9.90
2023-05-14T03:28:10.626Z,9.90
2023-05-14T03:30:37.680Z,9.90
2023-05-14T03:33:04.831Z,9.90
2023-05-14T03:35:31.782Z,9.80
2023-05-14T03:37:59.399Z,9.70
2023-05-14T03:40:26.857Z,9.80
2023-05-14T03:42:53.783Z,9.90
2023-05-14T03:45:21.048Z,9.90
2023-05-14T03:47:48.073Z,9.90
2023-05-14T03:50:15.109Z,9.80
2023-05-14T03:52:42.033Z,9.80
2023-05-14T03:55:09.490Z,9.80
2023-05-14T03:57:36.935Z,9.90
2023-05-14T04:00:04.995Z,9.80
2023-05-14T04:02:43.951Z,10.00
2023-05-14T04:05:11.301Z,10.10
2023-05-14T04:07:38.342Z,10.20
2023-05-14T04:10:05.755Z,10.20
2023-05-14T04:12:35.185Z,10.40
2023-05-14T04:15:02.998Z,10.30
2023-05-14T04:17:29.924Z,10.20
2023-05-14T04:19:57.018Z,10.10
2023-05-14T04:22:24.461Z,10.20
2023-05-14T04:24:52.015Z,10.30
2023-05-14T04:27:22.155Z,10.60
2023-05-14T04:29:52.080Z,11.30
2023-05-14T04:32:18.989Z,11.90
2023-05-14T04:34:46.969Z,12.30
2023-05-14T04:37:14.005Z,12.80
2023-05-14T04:39:40.954Z,13.40
2023-05-14T04:42:08.182Z,13.70
2023-05-14T04:44:36.668Z,14.00
2023-05-14T04:47:04.310Z,14.50
2023-05-14T04:49:31.964Z,15.00
2023-05-14T04:51:59.060Z,15.20
2023-05-14T04:54:28.284Z,15.70
2023-05-14T04:56:55.954Z,15.90
2023-05-14T04:59:22.937Z,16.00
2023-05-14T05:01:49.969Z,16.50
2023-05-14T05:04:17.056Z,16.60
2023-05-14T05:06:43.974Z,16.40
2023-05-14T05:09:10.906Z,15.90
2023-05-14T05:11:38.848Z,15.90
2023-05-14T05:14:05.739Z,16.50
2023-05-14T05:16:32.838Z,17.30
2023-05-14T05:18:59.959Z,16.40
2023-05-14T05:21:27.162Z,16.40
2023-05-14T05:23:54.316Z,16.70
2023-05-14T05:26:22.150Z,16.00
2023-05-14T05:28:49.192Z,17.10
2023-05-14T05:31:19.040Z,17.30
2023-05-14T05:33:46.809Z,17.80
2023-05-14T05:36:13.705Z,19.50
2023-05-14T05:38:40.725Z,19.60
2023-05-14T05:41:07.664Z,18.90
2023-05-14T05:43:34.641Z,17.80
2023-05-14T05:46:01.644Z,16.20
2023-05-14T05:48:28.603Z,15.80
2023-05-14T05:50:55.725Z,15.30
2023-05-14T05:53:22.990Z,15.10
2023-05-14T05:55:51.695Z,15.20
2023-05-14T05:58:19.504Z,15.50
2023-05-14T06:00:49.769Z,15.60
2023-05-14T06:03:16.786Z,15.40
2023-05-14T06:05:43.813Z,15.70
2023-05-14T06:08:10.777Z,15.70
2023-05-14T06:10:37.802Z,15.70
2023-05-14T06:13:04.835Z,15.90
2023-05-14T06:15:31.765Z,16.60
2023-05-14T06:17:58.740Z,17.60
2023-05-14T06:20:26.023Z,18.50
2023-05-14T06:22:53.173Z,19.90
2023-05-14T06:25:20.222Z,21.20
2023-05-14T06:27:47.218Z,21.40
2023-05-14T06:30:17.439Z,23.60
2023-05-14T06:32:44.451Z,25.60
2023-05-14T06:35:11.404Z,26.70
2023-05-14T06:37:38.454Z,27.40
2023-05-14T06:40:06.205Z,28.70
2023-05-14T06:42:33.150Z,28.20
2023-05-14T06:45:00.168Z,26.60
2023-05-14T06:47:27.130Z,27.40
2023-05-14T06:49:54.090Z,26.20
2023-05-14T06:52:21.025Z,25.60
2023-05-14T06:54:47.934Z,24.30
2023-05-14T06:57:14.854Z,24.60
2023-05-14T06:59:41.778Z,23.50
2023-05-14T07:02:08.743Z,23.70
2023-05-14T07:04:36.543Z,24.70
2023-05-14T07:07:03.673Z,24.60
2023-05-14T07:09:30.634Z,26.70
2023-05-14T07:11:57.623Z,28.00
2023-05-14T07:14:24.526Z,29.30
2023-05-14T07:16:51.754Z,29.20
2023-05-14T07:19:18.812Z,28.70
2023-05-14T07:21:45.808Z,28.80
2023-05-14T07:24:12.645Z,28.30
2023-05-14T07:26:39.683Z,29.60
2023-05-14T07:29:06.988Z,29.90
2023-05-14T07:31:34.064Z,31.00
2023-05-14T07:34:01.038Z,32.20
2023-05-14T07:36:28.088Z,32.80
2023-05-14T07:38:55.136Z,33.30
2023-05-14T07:41:22.090Z,31.40
2023-05-14T07:43:49.041Z,30.40
2023-05-14T07:46:16.525Z,30.80
2023-05-14T07:48:43.478Z,31.50
2023-05-14T07:51:10.466Z,31.60
2023-05-14T07:53:37.409Z,28.10
2023-05-14T07:56:04.564Z,29.50
2023-05-14T07:58:31.901Z,30.30
2023-05-14T08:00:58.816Z,30.80
2023-05-14T08:03:25.930Z,31.90
2023-05-14T08:05:53.028Z,32.30
2023-05-14T08:08:19.972Z,32.80
2023-05-14T08:10:46.981Z,30.30
2023-05-14T08:13:13.975Z,28.00
2023-05-14T08:15:41.082Z,30.70
2023-05-14T08:18:08.056Z,32.00
2023-05-14T08:20:35.015Z,32.10
2023-05-14T08:23:01.923Z,30.60
2023-05-14T08:25:29.014Z,31.60
2023-05-14T08:27:56.078Z,31.70
2023-05-14T08:30:23.489Z,31.90
2023-05-14T08:32:50.940Z,31.40
2023-05-14T08:35:18.257Z,28.40
2023-05-14T08:37:45.546Z,29.60
2023-05-14T08:40:12.993Z,29.60
2023-05-14T08:42:44.867Z,29.90
2023-05-14T08:45:25.722Z,29.50
2023-05-14T08:47:53.177Z,31.00
2023-05-14T08:50:22.894Z,31.70
2023-05-14T08:52:51.280Z,31.90
2023-05-14T08:55:18.710Z,30.10
2023-05-14T08:57:46.475Z,30.40
2023-05-14T09:00:15.102Z,30.60
2023-05-14T09:02:44.477Z,29.70
2023-05-14T09:05:12.495Z,31.50
2023-05-14T09:07:39.741Z,32.40
2023-05-14T09:10:09.020Z,33.30
2023-05-14T09:12:35.938Z,32.90
2023-05-14T09:15:03.018Z,30.90
2023-05-14T09:17:30.029Z,32.40
2023-05-14T09:19:57.043Z,32.40
2023-05-14T09:22:23.953Z,30.60
2023-05-14T09:25:12.078Z,29.70
2023-05-14T09:27:39.166Z,30.80
2023-05-14T09:30:08.427Z,30.10
2023-05-14T09:32:46.328Z,29.10
2023-05-14T09:35:17.395Z,30.30
2023-05-14T09:37:46.710Z,32.80
2023-05-14T09:40:14.159Z,28.10
2023-05-14T09:42:41.538Z,31.10
2023-05-14T09:45:09.759Z,30.40
2023-05-14T09:47:40.273Z,32.00
2023-05-14T09:50:08.083Z,31.70
2023-05-14T09:52:35.437Z,29.40
2023-05-14T09:55:02.603Z,26.10
2023-05-14T09:57:29.653Z,28.30
2023-05-14T09:59:56.560Z,31.10
2023-05-14T10:02:25.922Z,32.00
2023-05-14T10:05:00.831Z,30.00
2023-05-14T10:07:31.850Z,29.90
2023-05-14T10:10:02.357Z,28.90
2023-05-14T10:12:34.440Z,26.60
2023-05-14T10:15:13.193Z,25.50
2023-05-14T10:17:44.221Z,24.90
2023-05-14T10:20:16.841Z,24.40
2023-05-14T10:22:43.890Z,26.40
2023-05-14T10:25:12.061Z,28.30
2023-05-14T10:27:40.422Z,26.80
2023-05-14T10:30:14.650Z,25.50
2023-05-14T10:32:44.682Z,24.30
2023-05-14T10:35:25.348Z,24.50
2023-05-14T10:37:52.267Z,25.80
2023-05-14T10:40:19.599Z,26.10
2023-05-14T10:42:50.758Z,26.50
2023-05-14T10:45:17.858Z,25.20
2023-05-14T10:47:47.102Z,24.60
2023-05-14T10:50:15.829Z,24.30
2023-05-14T10:52:44.076Z,23.60
2023-05-14T10:55:14.254Z,23.90
2023-05-14T10:57:43.521Z,24.10
2023-05-14T11:00:12.557Z,25.40
2023-05-14T11:02:42.010Z,27.30
2023-05-14T11:05:16.873Z,26.50
2023-05-14T11:07:46.171Z,27.00
2023-05-14T11:10:17.884Z,28.10
2023-05-14T11:12:47.608Z,28.80
2023-05-14T11:15:17.004Z,29.30
2023-05-14T11:17:45.646Z,28.80
2023-05-14T11:20:13.251Z,27.40
2023-05-14T11:22:41.767Z,27.60
2023-05-14T11:25:09.978Z,27.40
2023-05-14T11:27:40.073Z,28.40
2023-05-14T11:30:27.413Z,27.90
2023-05-14T11:32:55.918Z,27.80
2023-05-14T11:35:23.112Z,28.30
2023-05-14T11:37:54.202Z,28.90
2023-05-14T11:40:21.658Z,28.20
2023-05-14T11:42:52.321Z,27.50
2023-05-14T11:45:27.220Z,26.20
2023-05-14T11:47:54.949Z,26.10
2023-05-14T11:50:23.302Z,27.50
2023-05-14T11:52:51.010Z,28.70
2023-05-14T11:55:18.194Z,28.60
2023-05-14T11:57:45.273Z,28.20
2023-05-14T12:00:21.944Z,27.40
2023-05-14T12:02:50.061Z,26.10
2023-05-14T12:05:17.375Z,27.10
2023-05-14T12:07:48.029Z,27.30
2023-05-14T12:10:15.222Z,26.90
2023-05-14T12:12:46.183Z,26.50
2023-05-14T12:15:14.127Z,25.80
2023-05-14T12:17:41.804Z,25.10
2023-05-14T12:20:12.996Z,26.10
2023-05-14T12:22:42.396Z,26.10
2023-05-14T12:25:16.072Z,26.20
2023-05-14T12:27:45.376Z,26.90
2023-05-14T12:30:21.158Z,26.60
2023-05-14T12:32:51.715Z,26.50
2023-05-14T12:35:20.613Z,27.40
2023-05-14T12:37:47.610Z,26.60
2023-05-14T12:40:14.603Z,26.40
2023-05-14T12:42:41.823Z,26.10
2023-05-14T12:45:09.077Z,25.00
2023-05-14T12:47:37.036Z,24.50
2023-05-14T12:50:05.949Z,24.70
2023-05-14T12:55:03.145Z,24.20
2023-05-14T12:57:30.640Z,24.60
2023-05-14T12:59:57.639Z,25.40
2023-05-14T13:02:24.625Z,25.80
2023-05-14T13:04:51.543Z,24.90
2023-05-14T13:07:18.550Z,24.40
2023-05-14T13:09:45.496Z,24.60
2023-05-14T13:12:12.380Z,24.40
2023-05-14T13:14:39.400Z,24.90
2023-05-14T13:17:08.216Z,24.10
2023-05-14T13:19:35.405Z,24.00
2023-05-14T13:22:05.159Z,23.90
2023-05-14T13:24:32.056Z,24.40
2023-05-14T13:26:58.972Z,24.30
2023-05-14T13:29:26.194Z,24.50
2023-05-14T13:31:56.308Z,24.70
2023-05-14T13:34:23.205Z,24.30
2023-05-14T13:36:50.713Z,24.80
2023-05-14T13:39:17.920Z,25.20
2023-05-14T13:41:45.547Z,25.20
2023-05-14T13:44:12.404Z,26.00
2023-05-14T13:46:39.349Z,25.40
2023-05-14T13:49:06.521Z,24.70
2023-05-14T13:51:33.625Z,24.80
2023-05-14T13:54:00.647Z,25.00
2023-05-14T13:56:27.652Z,24.40
2023-05-14T13:58:54.812Z,23.50
2023-05-14T14:01:23.359Z,23.40
2023-05-14T14:03:50.479Z,23.60
2023-05-14T14:06:17.413Z,23.10
2023-05-14T14:08:44.607Z,23.40
2023-05-14T14:11:12.952Z,24.00
2023-05-14T14:13:40.250Z,24.60
2023-05-14T14:16:07.417Z,23.80
2023-05-14T14:18:35.829Z,23.40
2023-05-14T14:21:03.092Z,23.40
2023-05-14T14:23:30.112Z,23.60
2023-05-14T14:25:58.031Z,23.80
2023-05-14T14:28:25.090Z,24.00
2023-05-14T14:30:52.163Z,23.80
2023-05-14T14:33:19.111Z,23.90
2023-05-14T14:35:46.420Z,24.00
2023-05-14T14:38:13.838Z,23.60
2023-05-14T14:40:40.992Z,23.50
2023-05-14T14:43:07.983Z,23.10
2023-05-14T14:45:35.031Z,23.20
2023-05-14T14:48:24.388Z,23.40
2023-05-14T14:50:52.131Z,23.20
2023-05-14T14:53:20.655Z,23.30
2023-05-14T14:55:49.906Z,23.00
2023-05-14T14:58:18.764Z,23.00
2023-05-14T15:00:45.806Z,23.30
2023-05-14T15:03:14.986Z,23.60
2023-05-14T15:05:42.440Z,23.70
2023-05-14T15:08:09.649Z,23.50
2023-05-14T15:10:38.227Z,23.50
2023-05-14T15:13:06.395Z,23.60
2023-05-14T15:15:34.791Z,23.30
2023-05-14T15:18:02.735Z,23.10
2023-05-14T15:20:29.902Z,23.10
2023-05-14T15:22:56.975Z,22.70
2023-05-14T15:25:24.769Z,22.30
2023-05-14T15:27:52.219Z,22.10
2023-05-14T15:30:19.226Z,22.10
2023-05-14T15:32:46.767Z,22.20
2023-05-14T15:35:14.186Z,22.50
2023-05-14T15:37:44.721Z,22.30
2023-05-14T15:40:12.293Z,22.00
2023-05-14T15:42:43.856Z,21.90
2023-05-14T15:45:13.128Z,22.10
2023-05-14T15:47:41.079Z,22.10
2023-05-14T15:50:08.722Z,21.80
2023-05-14T15:52:39.152Z,21.80
2023-05-14T15:55:06.677Z,21.80
2023-05-14T15:57:34.337Z,22.20
2023-05-14T16:00:01.648Z,22.30
2023-05-14T16:02:33.337Z,22.30
2023-05-14T16:05:00.419Z,22.10
2023-05-14T16:07:27.470Z,22.00
2023-05-14T16:09:54.423Z,22.10
2023-05-14T16:12:21.498Z,22.40
2023-05-14T16:14:48.345Z,22.60
2023-05-14T16:17:15.419Z,22.30
2023-05-14T16:19:42.356Z,22.40
2023-05-14T16:22:09.249Z,22.60
2023-05-14T16:24:36.320Z,22.30
2023-05-14T16:27:04.049Z,22.40
2023-05-14T16:29:31.352Z,22.60
2023-05-14T16:31:58.570Z,22.60
2023-05-14T16:34:25.578Z,22.80
2023-05-14T16:36:52.555Z,22.60
2023-05-14T16:39:19.546Z,22.20
2023-05-14T16:41:46.500Z,21.60
2023-05-14T16:44:13.396Z,21.30
2023-05-14T16:46:40.471Z,21.10
2023-05-14T16:49:07.439Z,21.10
2023-05-14T16:51:34.304Z,20.80
2023-05-14T16:54:01.278Z,20.70
2023-05-14T16:56:29.320Z,20.70
2023-05-14T16:58:56.283Z,20.50
2023-05-14T17:01:23.385Z,20.50
2023-05-14T17:03:50.455Z,20.30
2023-05-14T17:06:17.485Z,20.30
2023-05-14T17:08:44.426Z,20.30
2023-05-14T17:11:11.248Z,20.10
2023-05-14T17:13:38.234Z,20.20
2023-05-14T17:16:05.388Z,20.20
2023-05-14T17:18:32.837Z,20.30
2023-05-14T17:20:59.867Z,20.30
2023-05-14T17:23:26.775Z,20.30
2023-05-14T17:25:56.654Z,20.30
2023-05-14T17:28:24.622Z,20.20
2023-05-14T17:30:51.831Z,20.40
2023-05-14T17:33:18.770Z,20.40
2023-05-14T17:35:45.844Z,20.30
2023-05-14T17:38:12.821Z,20.40
2023-05-14T17:40:40.935Z,20.30
2023-05-14T17:43:08.651Z,20.20
2023-05-14T17:45:46.236Z,20.20
2023-05-14T17:48:19.762Z,20.30
2023-05-14T17:50:46.901Z,20.30
2023-05-14T17:53:13.966Z,20.40
2023-05-14T17:55:43.571Z,20.60
2023-05-14T17:58:13.431Z,20.70
2023-05-14T18:00:41.042Z,20.60
2023-05-14T18:03:08.356Z,20.60
2023-05-14T18:05:35.777Z,20.60
2023-05-14T18:08:08.037Z,20.60
2023-05-14T18:10:36.193Z,20.50
2023-05-14T18:13:03.095Z,20.50
2023-05-14T18:15:31.595Z,20.40
2023-05-14T18:17:58.994Z,20.20
2023-05-14T18:20:25.978Z,20.20
2023-05-14T18:22:52.993Z,20.00
2023-05-14T18:25:19.886Z,19.80
2023-05-14T18:27:47.076Z,19.60
2023-05-14T18:30:15.714Z,19.40
2023-05-14T18:32:44.573Z,19.20
2023-05-14T18:35:12.738Z,19.00
2023-05-14T18:37:40.112Z,18.90
2023-05-14T18:40:07.879Z,18.80
2023-05-14T18:42:35.230Z,18.80
2023-05-14T18:45:02.545Z,18.80
2023-05-14T18:47:29.760Z,18.80
2023-05-14T18:49:59.012Z,18.80
2023-05-14T18:52:26.665Z,18.80
2023-05-14T18:54:54.891Z,18.80
2023-05-14T18:57:22.315Z,18.80
2023-05-14T18:59:49.436Z,18.70
2023-05-14T19:02:16.632Z,18.70
2023-05-14T19:04:52.317Z,18.60
2023-05-14T19:07:23.352Z,18.60
2023-05-14T19:09:50.569Z,18.50
2023-05-14T19:12:17.548Z,18.40
2023-05-14T19:14:44.480Z,18.40
2023-05-14T19:17:11.675Z,18.30
2023-05-14T19:19:39.501Z,18.20
2023-05-14T19:22:06.885Z,18.10
2023-05-14T19:24:33.923Z,18.00
2023-05-14T19:27:01.156Z,17.90
2023-05-14T19:29:30.181Z,17.90
2023-05-14T19:31:57.103Z,17.90
2023-05-14T19:34:25.416Z,17.80
2023-05-14T19:36:52.454Z,17.80
2023-05-14T19:39:19.332Z,17.70
2023-05-14T19:41:49.330Z,17.70
2023-05-14T19:44:16.301Z,17.50
2023-05-14T19:46:43.422Z,17.30
2023-05-14T19:49:10.746Z,16.90
2023-05-14T19:51:37.707Z,16.70
2023-05-14T19:54:04.708Z,16.50
2023-05-14T19:56:31.745Z,16.60
2023-05-14T19:58:58.646Z,16.60
2023-05-14T20:01:27.466Z,16.50
2023-05-14T20:03:54.444Z,16.40
2023-05-14T20:06:21.672Z,16.30
2023-05-14T20:08:48.814Z,16.30
2023-05-14T20:11:18.161Z,16.40
2023-05-14T20:13:45.543Z,16.40
2023-05-14T20:16:13.615Z,16.40
2023-05-14T20:18:41.308Z,16.40
2023-05-14T20:21:08.452Z,16.40
2023-05-14T20:23:38.638Z,16.40
2023-05-14T20:26:06.117Z,16.40
2023-05-14T20:28:33.212Z,16.30
2023-05-14T20:31:01.171Z,16.40
2023-05-14T20:33:29.151Z,16.40
2023-05-14T20:35:56.423Z,16.40
2023-05-14T20:38:23.547Z,16.50
2023-05-14T20:40:50.622Z,16.60
2023-05-14T20:43:20.325Z,16.50
2023-05-14T20:45:47.272Z,16.40
2023-05-14T20:48:17.734Z,16.40
2023-05-14T20:50:44.859Z,16.40
2023-05-14T20:53:11.809Z,15.90
2023-05-14T20:55:39.472Z,15.70
2023-05-14T20:58:13.963Z,15.80
2023-05-14T21:00:41.042Z,15.90
2023-05-14T21:03:08.258Z,16.10
2023-05-14T21:05:35.329Z,16.10
2023-05-14T21:08:02.264Z,16.10
2023-05-14T21:10:34.707Z,16.20
2023-05-14T21:13:01.698Z,16.10
2023-05-14T21:15:30.676Z,16.10
2023-05-14T21:17:58.124Z,15.90
2023-05-14T21:20:25.416Z,15.30
2023-05-14T21:22:52.595Z,14.70
2023-05-14T21:25:19.662Z,14.80
2023-05-14T21:27:46.796Z,14.80
2023-05-14T21:30:14.109Z,14.60
2023-05-14T21:32:41.768Z,14.60
2023-05-14T21:35:09.253Z,14.50
2023-05-14T21:37:36.504Z,14.60
2023-05-14T21:40:03.444Z,14.80
2023-05-14T21:42:32.725Z,15.00
2023-05-14T21:45:02.281Z,15.00
2023-05-14T21:47:29.314Z,15.10
2023-05-14T21:49:56.283Z,15.20
2023-05-14T21:52:25.747Z,15.20
2023-05-14T21:54:55.896Z,15.20
2023-05-14T21:57:23.016Z,15.30
2023-05-14T21:59:49.905Z,15.20
2023-05-14T22:02:16.946Z,15.20
2023-05-14T22:04:46.610Z,15.10
2023-05-14T22:07:13.562Z,14.90
2023-05-14T22:09:40.708Z,14.70
2023-05-14T22:12:07.963Z,14.80
2023-05-14T22:14:34.981Z,14.90
2023-05-14T22:17:01.928Z,14.90
2023-05-14T22:19:29.003Z,15.00
2023-05-14T22:21:56.038Z,15.00
2023-05-14T22:24:23.003Z,15.00
2023-05-14T22:26:50.499Z,15.00
2023-05-14T22:29:17.332Z,15.00
2023-05-14T22:31:44.372Z,14.80
2023-05-14T22:34:11.566Z,14.60
2023-05-14T22:36:38.882Z,14.60
2023-05-14T22:39:05.839Z,14.60
2023-05-14T22:41:32.789Z,14.60
2023-05-14T22:43:59.706Z,14.70
2023-05-14T22:46:26.708Z,14.40
2023-05-14T22:48:53.638Z,14.20
2023-05-14T22:51:20.532Z,13.90
2023-05-14T22:53:47.648Z,13.90
2023-05-14T22:56:15.194Z,13.90
2023-05-14T22:58:42.103Z,14.00
2023-05-14T23:01:09.000Z,14.10
2023-05-14T23:03:36.051Z,14.10
2023-05-14T23:06:03.157Z,14.20
2023-05-14T23:08:30.127Z,14.20
2023-05-14T23:10:56.998Z,14.10
2023-05-14T23:13:24.065Z,13.90
2023-05-14T23:15:51.187Z,13.90
2023-05-14T23:18:18.166Z,13.80
2023-05-14T23:20:45.167Z,13.70
2023-05-14T23:23:12.058Z,13.70
2023-05-14T23:25:39.138Z,13.70
2023-05-14T23:28:06.498Z,13.70
2023-05-14T23:30:33.486Z,13.40
2023-05-14T23:33:00.511Z,13.10
2023-05-14T23:35:27.664Z,13.00
2023-05-14T23:37:55.352Z,12.90
2023-05-14T23:40:22.381Z,12.80
2023-05-14T23:42:49.254Z,12.70
2023-05-14T23:45:16.257Z,12.60
2023-05-14T23:47:43.349Z,12.70
2023-05-14T23:50:10.426Z,13.00
2023-05-14T23:52:37.426Z,13.10
2023-05-14T23:55:04.897Z,13.10
2023-05-14T23:57:31.934Z,13.10
2023-05-14T23:59:59.148Z,13.10
